createdAt,value
2023-04-15T00:00:01.879Z,9.443546
2023-04-15T00:01:01.839Z,9.443535
2023-04-15T00:02:01.981Z,9.443607
2023-04-15T00:03:02.074Z,9.443616
2023-04-15T00:04:01.894Z,9.443270
2023-04-15T00:05:01.776Z,9.443307
2023-04-15T00:06:02.099Z,9.443177
2023-04-15T00:07:01.768Z,9.443198
2023-04-15T00:08:01.773Z,9.443185
2023-04-15T00:09:01.973Z,9.443259
2023-04-15T00:10:01.757Z,9.443473
2023-04-15T00:11:01.768Z,9.443555
2023-04-15T00:12:01.740Z,9.443524
2023-04-15T00:13:01.784Z,9.443650
2023-04-15T00:14:01.716Z,9.443581
2023-04-15T00:15:01.718Z,9.443595
2023-04-15T00:16:01.722Z,9.443543
2023-04-15T00:17:01.770Z,9.443571
2023-04-15T00:18:01.732Z,9.443609
2023-04-15T00:19:01.959Z,9.443639
2023-04-15T00:20:01.695Z,9.443403
2023-04-15T00:21:01.716Z,9.443349
2023-04-15T00:22:01.740Z,9.443392
2023-04-15T00:23:01.683Z,9.443494
2023-04-15T00:24:01.674Z,9.443501
2023-04-15T00:25:01.708Z,9.443542
2023-04-15T00:26:01.653Z,9.443543
2023-04-15T00:27:01.725Z,9.443583
2023-04-15T00:28:01.691Z,9.443511
2023-04-15T00:29:01.813Z,9.443392
2023-04-15T00:30:01.625Z,9.443492
2023-04-15T00:31:01.720Z,9.443597
2023-04-15T00:32:01.683Z,9.443530
2023-04-15T00:33:01.700Z,9.443610
2023-04-15T00:34:01.603Z,9.443570
2023-04-15T00:35:01.648Z,9.443472
2023-04-15T00:36:01.623Z,9.443570
2023-04-15T00:37:01.583Z,9.443649
2023-04-15T00:38:01.607Z,9.443683
2023-04-15T00:39:01.742Z,9.443658
2023-04-15T00:40:01.618Z,9.443723
2023-04-15T00:41:01.552Z,9.443742
2023-04-15T00:42:01.564Z,9.443712
2023-04-15T00:43:01.598Z,9.443629
2023-04-15T00:44:01.568Z,9.443647
2023-04-15T00:45:01.564Z,9.443576
2023-04-15T00:46:01.557Z,9.443699
2023-04-15T00:47:01.602Z,9.443729
2023-04-15T00:48:01.531Z,9.443664
2023-04-15T00:49:02.516Z,9.443709
2023-04-15T00:50:01.580Z,9.443610
2023-04-15T00:51:01.593Z,9.443742
2023-04-15T00:52:01.565Z,9.443679
2023-04-15T00:53:01.536Z,9.443593
2023-04-15T00:54:01.497Z,9.443692
2023-04-15T00:55:01.512Z,9.443900
2023-04-15T00:56:01.513Z,9.443861
2023-04-15T00:57:01.453Z,9.443750
2023-04-15T00:58:01.541Z,9.443764
2023-04-15T00:59:01.690Z,9.443724
2023-04-15T01:00:01.577Z,9.443714
2023-04-15T01:01:01.484Z,9.443654
2023-04-15T01:02:01.563Z,9.443777
2023-04-15T01:03:01.556Z,9.443799
2023-04-15T01:04:01.593Z,9.443924
2023-04-15T01:05:01.489Z,9.443776
2023-04-15T01:06:03.724Z,9.443730
2023-04-15T01:07:03.523Z,9.443759
2023-04-15T01:08:01.522Z,9.443722
2023-04-15T01:09:02.750Z,9.443678
2023-04-15T01:10:01.440Z,9.443725
2023-04-15T01:11:01.472Z,9.443757
2023-04-15T01:12:02.361Z,9.443771
2023-04-15T01:13:01.366Z,9.443645
2023-04-15T01:14:01.357Z,9.443666
2023-04-15T01:15:01.353Z,9.443575
2023-04-15T01:16:01.361Z,9.443522
2023-04-15T01:17:01.380Z,9.443554
2023-04-15T01:18:01.492Z,9.443588
2023-04-15T01:19:01.440Z,9.443600
2023-04-15T01:20:01.359Z,9.443672
2023-04-15T01:21:01.320Z,9.443727
2023-04-15T01:22:01.321Z,9.443707
2023-04-15T01:23:01.302Z,9.443760
2023-04-15T01:24:01.311Z,9.443678
2023-04-15T01:25:01.308Z,9.443701
2023-04-15T01:26:01.310Z,9.443405
2023-04-15T01:27:01.288Z,9.443555
2023-04-15T01:28:01.278Z,9.443709
2023-04-15T01:29:01.414Z,9.443733
2023-04-15T01:30:01.261Z,9.443727
2023-04-15T01:31:01.289Z,9.443792
2023-04-15T01:32:01.243Z,9.443808
2023-04-15T01:33:01.293Z,9.443764
2023-04-15T01:34:02.064Z,9.443744
2023-04-15T01:35:01.221Z,9.443779
2023-04-15T01:36:01.223Z,9.443808
2023-04-15T01:37:01.222Z,9.443731
2023-04-15T01:38:01.201Z,9.443848
2023-04-15T01:39:02.314Z,9.443788
2023-04-15T01:40:01.194Z,9.443782
2023-04-15T01:41:01.232Z,9.443727
2023-04-15T01:42:01.174Z,9.443694
2023-04-15T01:43:01.180Z,9.443669
2023-04-15T01:44:01.186Z,9.443738
2023-04-15T01:45:01.195Z,9.443779
2023-04-15T01:46:01.180Z,9.443768
2023-04-15T01:47:01.261Z,9.443708
2023-04-15T01:48:01.251Z,9.443703
2023-04-15T01:49:01.409Z,9.443740
2023-04-15T01:50:01.152Z,9.443732
2023-04-15T01:51:01.169Z,9.443738
2023-04-15T01:52:01.132Z,9.443697
2023-04-15T01:53:01.102Z,9.443680
2023-04-15T01:54:01.109Z,9.443689
2023-04-15T01:55:01.116Z,9.443702
2023-04-15T01:56:01.126Z,9.443764
2023-04-15T01:57:01.120Z,9.443727
2023-04-15T01:58:01.118Z,9.443654
2023-04-15T01:59:01.343Z,9.443757
2023-04-15T02:00:01.059Z,9.443692
2023-04-15T02:01:01.086Z,9.443723
2023-04-15T02:02:01.178Z,9.443658
2023-04-15T02:03:01.107Z,9.443637
2023-04-15T02:04:01.184Z,9.443691
2023-04-15T02:05:01.045Z,9.443743
2023-04-15T02:06:01.036Z,9.443776
2023-04-15T02:07:01.088Z,9.443794
2023-04-15T02:08:01.024Z,9.443714
2023-04-15T02:09:01.146Z,9.443734
2023-04-15T02:10:01.001Z,9.443755
2023-04-15T02:11:00.986Z,9.443716
2023-04-15T02:12:01.065Z,9.443684
2023-04-15T02:13:00.986Z,9.443619
2023-04-15T02:14:00.993Z,9.443641
2023-04-15T02:15:01.047Z,9.443699
2023-04-15T02:16:00.980Z,9.443677
2023-04-15T02:17:00.986Z,9.443688
2023-04-15T02:18:01.065Z,9.443750
2023-04-15T02:19:01.146Z,9.443639
2023-04-15T02:20:00.937Z,9.443695
2023-04-15T02:21:00.928Z,9.443747
2023-04-15T02:22:00.985Z,9.443739
2023-04-15T02:23:00.920Z,9.443720
2023-04-15T02:24:00.946Z,9.443738
2023-04-15T02:25:00.897Z,9.443623
2023-04-15T02:26:00.915Z,9.443647
2023-04-15T02:27:00.893Z,9.443719
2023-04-15T02:28:00.898Z,9.443668
2023-04-15T02:29:01.145Z,9.443737
2023-04-15T02:30:00.901Z,9.443764
2023-04-15T02:31:00.914Z,9.443731
2023-04-15T02:32:00.971Z,9.443738
2023-04-15T02:33:00.919Z,9.443706
2023-04-15T02:34:00.846Z,9.443662
2023-04-15T02:35:00.844Z,9.443724
2023-04-15T02:36:00.856Z,9.443718
2023-04-15T02:37:00.864Z,9.443679
2023-04-15T02:38:00.845Z,9.443678
2023-04-15T02:39:01.080Z,9.443721
2023-04-15T02:40:00.848Z,9.443683
2023-04-15T02:41:00.817Z,9.443680
2023-04-15T02:42:00.834Z,9.443650
2023-04-15T02:43:00.807Z,9.443619
2023-04-15T02:44:00.821Z,9.443657
2023-04-15T02:45:00.794Z,9.443697
2023-04-15T02:46:00.821Z,9.443744
2023-04-15T02:47:00.817Z,9.443748
2023-04-15T02:48:00.783Z,9.443722
2023-04-15T02:49:00.897Z,9.443770
2023-04-15T02:50:00.779Z,9.443739
2023-04-15T02:51:00.786Z,9.443742
2023-04-15T02:52:00.766Z,9.443773
2023-04-15T02:53:00.762Z,9.443780
2023-04-15T02:54:00.734Z,9.443785
2023-04-15T02:55:00.715Z,9.443776
2023-04-15T02:56:00.788Z,9.443727
2023-04-15T02:57:00.719Z,9.443773
2023-04-15T02:58:00.712Z,9.443727
2023-04-15T02:59:00.981Z,9.443722
2023-04-15T03:00:00.694Z,9.443732
2023-04-15T03:01:00.764Z,9.443761
2023-04-15T03:02:00.768Z,9.443793
2023-04-15T03:03:00.899Z,9.443773
2023-04-15T03:04:00.834Z,9.443742
2023-04-15T03:05:00.756Z,9.443644
2023-04-15T03:06:00.701Z,9.443753
2023-04-15T03:07:00.665Z,9.443858
2023-04-15T03:08:00.678Z,9.443803
2023-04-15T03:09:00.825Z,9.443738
2023-04-15T03:10:00.648Z,9.443756
2023-04-15T03:11:00.630Z,9.443780
2023-04-15T03:12:00.621Z,9.443924
2023-04-15T03:13:00.643Z,9.443868
2023-04-15T03:14:00.632Z,9.443898
2023-04-15T03:15:00.630Z,9.443812
2023-04-15T03:16:00.692Z,9.443656
2023-04-15T03:17:00.590Z,9.443586
2023-04-15T03:18:00.641Z,9.443596
2023-04-15T03:19:00.750Z,9.443624
2023-04-15T03:20:00.615Z,9.443691
2023-04-15T03:21:00.579Z,9.443704
2023-04-15T03:22:00.588Z,9.443677
2023-04-15T03:23:00.567Z,9.443653
2023-04-15T03:24:00.552Z,9.443635
2023-04-15T03:25:00.536Z,9.443654
2023-04-15T03:26:00.574Z,9.443637
2023-04-15T03:27:00.570Z,9.443518
2023-04-15T03:28:00.544Z,9.443573
2023-04-15T03:29:00.626Z,9.443583
2023-04-15T03:30:00.509Z,9.443680
2023-04-15T03:31:00.593Z,9.443644
2023-04-15T03:32:00.513Z,9.443801
2023-04-15T03:33:00.538Z,9.443720
2023-04-15T03:34:00.481Z,9.443686
2023-04-15T03:35:00.505Z,9.443742
2023-04-15T03:36:00.480Z,9.443702
2023-04-15T03:37:00.454Z,9.443747
2023-04-15T03:38:00.494Z,9.443757
2023-04-15T03:39:00.635Z,9.443766
2023-04-15T03:40:00.455Z,9.443863
2023-04-15T03:41:00.461Z,9.443810
2023-04-15T03:42:00.441Z,9.443772
2023-04-15T03:43:00.593Z,9.443747
2023-04-15T03:44:00.443Z,9.443727
2023-04-15T03:45:00.432Z,9.443741
2023-04-15T03:46:01.920Z,9.443705
2023-04-15T03:47:00.409Z,9.443718
2023-04-15T03:48:11.403Z,9.443739
2023-04-15T03:49:02.712Z,9.443827
2023-04-15T03:50:00.388Z,9.443802
2023-04-15T03:51:00.384Z,9.443758
2023-04-15T03:52:00.382Z,9.443769
2023-04-15T03:53:00.360Z,9.443773
2023-04-15T03:54:00.372Z,9.443721
2023-04-15T03:55:00.353Z,9.443707
2023-04-15T03:56:00.353Z,9.443740
2023-04-15T03:57:00.366Z,9.443689
2023-04-15T03:58:00.332Z,9.443633
2023-04-15T03:59:00.639Z,9.443643
2023-04-15T04:00:00.315Z,9.443723
2023-04-15T04:01:00.340Z,9.443733
2023-04-15T04:02:00.386Z,9.443835
2023-04-15T04:03:00.475Z,9.443780
2023-04-15T04:04:00.352Z,9.443708
2023-04-15T04:05:00.294Z,9.443684
2023-04-15T04:06:00.287Z,9.443677
2023-04-15T04:07:00.273Z,9.443706
2023-04-15T04:08:00.295Z,9.443728
2023-04-15T04:09:00.500Z,9.443725
2023-04-15T04:10:00.255Z,9.443699
2023-04-15T04:11:00.246Z,9.443728
2023-04-15T04:12:00.241Z,9.443715
2023-04-15T04:13:00.254Z,9.443668
2023-04-15T04:14:00.246Z,9.443783
2023-04-15T04:15:00.266Z,9.443752
2023-04-15T04:16:00.326Z,9.443699
2023-04-15T04:17:00.299Z,9.443692
2023-04-15T04:18:00.247Z,9.443695
2023-04-15T04:19:00.447Z,9.443783
2023-04-15T04:20:00.219Z,9.443673
2023-04-15T04:21:00.184Z,9.443775
2023-04-15T04:22:00.201Z,9.443678
2023-04-15T04:23:00.164Z,9.443648
2023-04-15T04:24:00.158Z,9.443655
2023-04-15T04:25:00.183Z,9.443709
2023-04-15T04:26:00.191Z,9.443676
2023-04-15T04:27:00.178Z,9.443664
2023-04-15T04:28:00.204Z,9.443671
2023-04-15T04:29:00.355Z,9.443745
2023-04-15T04:30:00.181Z,9.443697
2023-04-15T04:31:00.135Z,9.443660
2023-04-15T04:32:00.156Z,9.443698
2023-04-15T04:33:00.212Z,9.443686
2023-04-15T04:34:00.117Z,9.443653
2023-04-15T04:35:00.147Z,9.443590
2023-04-15T04:36:00.128Z,9.443620
2023-04-15T04:37:00.088Z,9.443682
2023-04-15T04:38:00.045Z,9.443754
2023-04-15T04:39:01.187Z,9.443652
2023-04-15T04:40:00.122Z,9.443635
2023-04-15T04:41:00.102Z,9.443661
2023-04-15T04:42:00.129Z,9.443680
2023-04-15T04:43:00.046Z,9.443682
2023-04-15T04:44:00.033Z,9.443650
2023-04-15T04:45:00.058Z,9.443701
2023-04-15T04:46:00.033Z,9.443697
2023-04-15T04:47:00.019Z,9.443718
2023-04-15T04:48:00.045Z,9.443765
2023-04-15T04:49:00.121Z,9.443744
2023-04-15T04:50:00.176Z,9.443709
2023-04-15T04:50:59.985Z,9.443635
2023-04-15T04:51:59.979Z,9.443675
2023-04-15T04:52:59.980Z,9.443702
2023-04-15T04:54:01.275Z,9.443661
2023-04-15T04:54:59.984Z,9.443655
2023-04-15T04:56:00.120Z,9.443591
2023-04-15T04:56:59.956Z,9.443648
2023-04-15T04:57:59.943Z,9.443711
2023-04-15T04:59:00.325Z,9.443624
2023-04-15T04:59:59.971Z,9.443590
2023-04-15T05:00:59.970Z,9.443618
2023-04-15T05:01:59.952Z,9.443650
2023-04-15T05:03:00.074Z,9.443600
2023-04-15T05:04:00.267Z,9.443480
2023-04-15T05:04:59.891Z,9.443520
2023-04-15T05:05:59.902Z,9.443591
2023-04-15T05:06:59.882Z,9.443686
2023-04-15T05:07:59.865Z,9.443551
2023-04-15T05:09:00.205Z,9.443492
2023-04-15T05:09:59.869Z,9.443603
2023-04-15T05:10:59.871Z,9.443561
2023-04-15T05:11:59.853Z,9.443502
2023-04-15T05:12:59.830Z,9.443389
2023-04-15T05:13:59.891Z,9.443414
2023-04-15T05:14:59.860Z,9.443545
2023-04-15T05:15:59.902Z,9.443488
2023-04-15T05:16:59.831Z,9.443631
2023-04-15T05:17:59.897Z,9.443671
2023-04-15T05:19:00.010Z,9.443658
2023-04-15T05:19:59.840Z,9.443666
2023-04-15T05:20:59.807Z,9.443645
2023-04-15T05:21:59.799Z,9.443645
2023-04-15T05:22:59.783Z,9.443637
2023-04-15T05:23:59.824Z,9.443725
2023-04-15T05:24:59.801Z,9.443704
2023-04-15T05:25:59.773Z,9.443681
2023-04-15T05:26:59.772Z,9.443726
2023-04-15T05:27:59.797Z,9.443765
2023-04-15T05:28:59.892Z,9.443719
2023-04-15T05:29:59.782Z,9.443758
2023-04-15T05:30:59.838Z,9.443749
2023-04-15T05:31:59.764Z,9.443754
2023-04-15T05:32:59.772Z,9.443661
2023-04-15T05:33:59.733Z,9.443747
2023-04-15T05:34:59.748Z,9.443694
2023-04-15T05:35:59.711Z,9.443715
2023-04-15T05:36:59.724Z,9.443767
2023-04-15T05:37:59.717Z,9.443755
2023-04-15T05:39:00.011Z,9.443749
2023-04-15T05:39:59.712Z,9.443720
2023-04-15T05:40:59.685Z,9.443718
2023-04-15T05:41:59.694Z,9.443707
2023-04-15T05:42:59.672Z,9.443728
2023-04-15T05:43:59.680Z,9.443736
2023-04-15T05:44:59.658Z,9.443744
2023-04-15T05:45:59.690Z,9.443730
2023-04-15T05:46:59.676Z,9.443727
2023-04-15T05:47:59.701Z,9.443741
2023-04-15T05:48:59.769Z,9.443765
2023-04-15T05:49:59.620Z,9.443776
2023-04-15T05:50:59.636Z,9.443828
2023-04-15T05:51:59.667Z,9.443793
2023-04-15T05:52:59.615Z,9.443652
2023-04-15T05:53:59.614Z,9.443712
2023-04-15T05:54:59.609Z,9.443741
2023-04-15T05:55:59.616Z,9.443783
2023-04-15T05:56:59.617Z,9.443761
2023-04-15T05:57:59.567Z,9.443727
2023-04-15T05:58:59.796Z,9.443739
2023-04-15T05:59:59.565Z,9.443753
2023-04-15T06:00:59.554Z,9.443780
2023-04-15T06:01:59.625Z,9.443785
2023-04-15T06:02:59.618Z,9.443759
2023-04-15T06:03:59.645Z,9.443806
2023-04-15T06:04:59.558Z,9.443810
2023-04-15T06:05:59.556Z,9.443881
2023-04-15T06:06:59.559Z,9.443788
2023-04-15T06:07:59.572Z,9.443708
2023-04-15T06:08:59.593Z,9.443691
2023-04-15T06:09:59.523Z,9.443723
2023-04-15T06:10:59.515Z,9.443691
2023-04-15T06:11:59.506Z,9.443744
2023-04-15T06:12:59.514Z,9.443738
2023-04-15T06:13:59.484Z,9.443660
2023-04-15T06:15:00.228Z,9.443658
2023-04-15T06:15:59.526Z,9.443718
2023-04-15T06:16:59.495Z,9.443711
2023-04-15T06:17:59.479Z,9.443796
2023-04-15T06:18:59.541Z,9.443785
2023-04-15T06:19:59.475Z,9.443710
2023-04-15T06:20:59.459Z,9.443719
2023-04-15T06:21:59.552Z,9.443767
2023-04-15T06:22:59.459Z,9.443758
2023-04-15T06:23:59.461Z,9.443754
2023-04-15T06:24:59.432Z,9.443601
2023-04-15T06:25:59.428Z,9.443529
2023-04-15T06:26:59.425Z,9.443545
2023-04-15T06:27:59.451Z,9.443700
2023-04-15T06:28:59.683Z,9.443675
2023-04-15T06:29:59.428Z,9.443671
2023-04-15T06:30:59.405Z,9.443695
2023-04-15T06:31:59.414Z,9.443722
2023-04-15T06:32:59.421Z,9.443713
2023-04-15T06:33:59.423Z,9.443662
2023-04-15T06:34:59.389Z,9.443604
2023-04-15T06:35:59.358Z,9.443627
2023-04-15T06:36:59.372Z,9.443609
2023-04-15T06:37:59.358Z,9.443721
2023-04-15T13:58:51.282Z,9.443612
2023-04-15T13:59:51.265Z,9.443666
2023-04-15T14:00:51.283Z,9.443722
2023-04-15T14:01:52.463Z,9.443738
2023-04-15T14:02:51.396Z,9.443705
2023-04-15T14:03:51.409Z,9.443734
2023-04-15T14:04:53.197Z,9.443711
2023-04-15T14:05:51.209Z,9.443700
2023-04-15T14:06:51.269Z,9.443682
2023-04-15T14:07:51.609Z,9.443708
2023-04-15T14:08:51.234Z,9.443722
2023-04-15T14:09:51.984Z,9.443718
2023-04-15T14:10:51.786Z,9.443712
2023-04-15T14:11:51.201Z,9.443711
2023-04-15T14:12:51.751Z,9.443666
2023-04-15T14:13:51.361Z,9.443668
2023-04-15T14:14:51.210Z,9.443688
2023-04-15T14:15:51.206Z,9.443689
2023-04-15T14:16:51.175Z,9.443694
2023-04-15T14:17:51.889Z,9.443739
2023-04-15T14:18:51.151Z,9.443801
2023-04-15T14:19:51.365Z,9.443706
2023-04-15T14:20:51.171Z,9.443691
2023-04-15T14:21:51.470Z,9.443733
2023-04-15T14:22:51.831Z,9.443655
2023-04-15T14:23:51.577Z,9.443670
2023-04-15T14:24:51.743Z,9.443680
2023-04-15T14:25:51.132Z,9.443697
2023-04-15T14:26:51.073Z,9.443718
2023-04-15T14:27:51.105Z,9.443719
2023-04-15T14:28:51.064Z,9.443669
2023-04-15T14:29:51.786Z,9.443615
2023-04-15T14:30:51.093Z,9.443624
2023-04-15T14:32:11.045Z,9.443645
2023-04-15T14:32:52.196Z,9.443641
2023-04-15T14:33:51.569Z,9.443670
2023-04-15T14:34:51.729Z,9.443709
2023-04-15T14:35:51.160Z,9.443749
2023-04-15T14:36:52.867Z,9.443736
2023-04-15T14:37:51.252Z,9.443676
2023-04-15T14:38:52.064Z,9.443733
2023-04-15T14:39:51.525Z,9.443706
2023-04-15T14:40:51.762Z,9.443677
2023-04-15T14:41:51.299Z,9.443641
2023-04-15T14:42:51.750Z,9.443675
2023-04-15T14:43:51.200Z,9.443627
2023-04-15T14:44:51.753Z,9.443670
2023-04-15T14:45:50.994Z,9.443685
2023-04-15T14:46:51.004Z,9.443662
2023-04-15T14:47:51.088Z,9.443674
2023-04-15T14:48:50.945Z,9.443712
2023-04-15T14:49:50.956Z,9.443694
2023-04-15T14:50:51.737Z,9.443722
2023-04-15T14:51:51.330Z,9.443679
2023-04-15T14:52:51.780Z,9.443696
2023-04-15T14:53:50.935Z,9.443671
2023-04-15T14:54:51.816Z,9.443689
2023-04-15T14:55:51.061Z,9.443692
2023-04-15T14:56:51.763Z,9.443697
2023-04-15T14:57:51.186Z,9.443675
2023-04-15T14:58:51.759Z,9.443666
2023-04-15T14:59:50.853Z,9.443687
2023-04-15T15:00:51.888Z,9.443708
2023-04-15T15:01:51.005Z,9.443749
2023-04-15T15:02:51.842Z,9.443757
2023-04-15T15:03:50.939Z,9.443717
2023-04-15T15:04:51.891Z,9.443673
2023-04-15T15:05:52.383Z,9.443694
2023-04-15T15:06:51.780Z,9.443738
2023-04-15T15:07:51.453Z,9.443696
2023-04-15T15:08:51.276Z,9.443743
2023-04-15T15:09:51.002Z,9.443730
2023-04-15T15:10:50.839Z,9.443703
2023-04-15T15:11:52.209Z,9.443676
2023-04-15T15:12:50.919Z,9.443657
2023-04-15T15:13:51.041Z,9.443690
2023-04-15T15:14:51.804Z,9.443721
2023-04-15T15:15:50.930Z,9.443687
2023-04-15T15:16:50.815Z,9.443694
2023-04-15T15:17:51.208Z,9.443691
2023-04-15T15:18:50.924Z,9.443664
2023-04-15T15:19:50.906Z,9.443654
2023-04-15T15:20:50.895Z,9.443644
2023-04-15T15:21:51.145Z,9.443662
2023-04-15T15:22:50.843Z,9.443665
2023-04-15T15:23:51.269Z,9.443659
2023-04-15T15:24:50.790Z,9.443678
2023-04-15T15:25:50.797Z,9.443699
2023-04-15T15:26:51.030Z,9.443682
2023-04-15T15:27:51.010Z,9.443738
2023-04-15T15:28:50.766Z,9.443766
2023-04-15T15:29:50.774Z,9.443731
2023-04-15T15:30:50.704Z,9.443749
2023-04-15T15:31:50.817Z,9.443825
2023-04-15T15:32:50.768Z,9.443828
2023-04-15T15:33:50.660Z,9.443727
2023-04-15T15:34:50.726Z,9.443721
2023-04-15T15:35:50.707Z,9.443697
2023-04-15T15:36:50.673Z,9.443677
2023-04-15T15:37:50.676Z,9.443651
2023-04-15T15:38:50.652Z,9.443673
2023-04-15T15:39:50.669Z,9.443661
2023-04-15T15:40:50.632Z,9.443742
2023-04-15T15:42:24.048Z,9.443747
2023-04-15T15:43:24.064Z,9.443718
2023-04-15T15:44:23.046Z,9.443746
2023-04-15T15:45:24.072Z,9.443670
2023-04-15T15:46:24.089Z,9.443665
2023-04-15T15:47:24.044Z,9.443685
2023-04-15T15:48:24.169Z,9.443736
2023-04-15T15:49:24.051Z,9.443729
2023-04-15T15:50:24.008Z,9.443711
2023-04-15T15:50:50.567Z,9.443685
2023-04-15T15:51:50.599Z,9.443711
2023-04-15T15:52:50.593Z,9.443732
2023-04-15T15:53:51.437Z,9.443707
2023-04-15T15:54:50.581Z,9.443756
2023-04-15T15:56:23.009Z,9.443752
2023-04-15T15:57:24.001Z,9.443706
2023-04-15T15:58:23.984Z,9.443707
2023-04-15T15:58:50.524Z,9.443718
2023-04-15T15:59:51.306Z,9.443698
2023-04-15T16:00:51.502Z,9.443852
2023-04-15T16:01:50.679Z,9.443744
2023-04-15T16:03:06.193Z,9.443792
2023-04-15T16:03:52.724Z,9.443792
2023-04-15T16:04:50.597Z,9.443881
2023-04-15T16:05:50.504Z,9.443696
2023-04-15T16:06:50.561Z,9.443694
2023-04-15T16:07:50.484Z,9.443556
2023-04-15T16:09:25.068Z,9.443499
2023-04-15T16:09:50.469Z,9.443668
2023-04-15T16:10:50.511Z,9.443715
2023-04-15T16:11:50.492Z,9.443709
2023-04-15T16:12:50.480Z,9.443780
2023-04-15T16:13:50.458Z,9.443788
2023-04-15T16:14:50.535Z,9.443729
2023-04-15T16:15:50.479Z,9.443655
2023-04-15T16:16:50.530Z,9.443698
2023-04-15T16:17:50.516Z,9.443678
2023-04-15T16:18:50.815Z,9.443605
2023-04-15T16:19:55.825Z,9.443634
2023-04-15T16:20:51.386Z,9.443717
2023-04-15T16:21:50.436Z,9.443752
2023-04-15T16:22:50.385Z,9.443629
2023-04-15T16:23:50.440Z,9.443617
2023-04-15T16:24:50.361Z,9.443751
2023-04-15T16:25:50.352Z,9.443776
2023-04-15T16:26:50.372Z,9.443705
2023-04-15T16:28:03.161Z,9.443716
2023-04-15T16:28:52.363Z,9.443714
2023-04-15T16:29:50.359Z,9.443709
2023-04-15T16:30:50.344Z,9.443698
2023-04-15T16:31:51.371Z,9.443672
2023-04-15T16:32:50.403Z,9.443599
2023-04-15T16:33:50.329Z,9.443568
2023-04-15T16:34:50.328Z,9.443571
2023-04-15T16:35:50.342Z,9.443457
2023-04-15T16:36:50.293Z,9.443547
2023-04-15T16:37:50.292Z,9.443682
2023-04-15T16:38:50.324Z,9.443776
2023-04-15T16:39:50.309Z,9.443682
2023-04-15T16:40:50.413Z,9.443583
2023-04-15T16:41:50.296Z,9.443694
2023-04-15T16:42:50.332Z,9.443690
2023-04-15T16:43:50.292Z,9.443638
2023-04-15T16:44:50.297Z,9.443616
2023-04-15T16:45:50.418Z,9.443641
2023-04-15T16:46:50.249Z,9.443623
2023-04-15T16:47:50.235Z,9.443736
2023-04-15T16:48:50.224Z,9.443648
2023-04-15T16:49:50.249Z,9.443657
2023-04-15T16:50:50.257Z,9.443707
2023-04-15T16:51:50.207Z,9.443686
2023-04-15T16:52:50.218Z,9.443700
2023-04-15T16:53:51.047Z,9.443787
2023-04-15T16:54:50.250Z,9.443833
2023-04-15T16:55:50.182Z,9.443775
2023-04-15T16:56:50.238Z,9.443731
2023-04-15T16:58:00.946Z,9.443633
2023-04-15T16:58:51.192Z,9.443768
2023-04-15T16:59:51.262Z,9.443723
2023-04-15T17:00:50.196Z,9.443752
2023-04-15T17:01:50.261Z,9.443771
2023-04-15T17:02:50.218Z,9.443749
2023-04-15T17:03:50.464Z,9.443793
2023-04-15T17:04:50.150Z,9.443833
2023-04-15T17:05:50.167Z,9.443817
2023-04-15T17:06:50.123Z,9.443727
2023-04-15T17:07:50.104Z,9.443847
2023-04-15T17:08:50.106Z,9.443904
2023-04-15T17:09:50.113Z,9.443867
2023-04-15T17:10:50.085Z,9.443849
2023-04-15T17:11:50.108Z,9.443906
2023-04-15T17:12:50.079Z,9.443895
2023-04-15T17:13:50.099Z,9.443765
2023-04-15T17:14:50.181Z,9.443776
2023-04-15T17:15:52.370Z,9.443864
2023-04-15T17:16:50.054Z,9.443824
2023-04-15T17:17:50.107Z,9.443830
2023-04-15T17:18:50.029Z,9.443754
2023-04-15T17:19:50.054Z,9.444039
2023-04-15T17:20:50.027Z,9.443794
2023-04-15T17:21:50.054Z,9.443806
2023-04-15T17:22:50.163Z,9.443774
2023-04-15T17:23:50.109Z,9.443821
2023-04-15T17:24:50.004Z,9.443857
2023-04-15T17:25:49.992Z,9.443744
2023-04-15T17:26:49.993Z,9.443685
2023-04-15T17:27:50.015Z,9.443755
2023-04-15T17:28:50.555Z,9.443801
2023-04-15T17:29:49.971Z,9.443686
2023-04-15T17:30:50.029Z,9.443784
2023-04-15T17:31:51.006Z,9.443740
2023-04-15T17:32:50.327Z,9.443715
2023-04-15T17:34:03.618Z,9.443746
2023-04-15T17:34:51.547Z,9.443634
2023-04-15T17:35:50.927Z,9.443563
2023-04-15T17:36:49.936Z,9.443686
2023-04-15T17:37:49.918Z,9.443651
2023-04-15T17:38:51.102Z,9.443585
2023-04-15T17:39:50.104Z,9.443599
2023-04-15T17:40:49.913Z,9.443611
2023-04-15T17:41:49.963Z,9.443464
2023-04-15T17:42:50.004Z,9.443568
2023-04-15T17:43:49.896Z,9.443484
2023-04-15T17:44:49.907Z,9.443572
2023-04-15T17:45:49.922Z,9.443656
2023-04-15T17:46:49.893Z,9.443774
2023-04-15T17:47:49.956Z,9.443683
2023-04-15T17:48:49.902Z,9.443753
2023-04-15T17:49:49.857Z,9.443723
2023-04-15T17:50:51.795Z,9.443677
2023-04-15T17:51:50.835Z,9.443674
2023-04-15T17:52:49.846Z,9.443649
2023-04-15T17:53:49.849Z,9.443698
2023-04-15T17:54:49.833Z,9.443702
2023-04-15T17:55:49.822Z,9.443731
2023-04-15T17:56:50.054Z,9.443672
2023-04-15T17:57:49.852Z,9.443700
2023-04-15T17:58:49.879Z,9.443784
2023-04-15T17:59:49.784Z,9.443613
2023-04-15T18:00:49.844Z,9.443582
2023-04-15T18:01:49.917Z,9.443601
2023-04-15T18:02:50.047Z,9.443609
2023-04-15T18:03:49.964Z,9.443739
2023-04-15T18:04:49.866Z,9.443810
2023-04-15T18:05:49.760Z,9.443844
2023-04-15T18:06:49.777Z,9.443887
2023-04-15T18:07:50.040Z,9.443855
2023-04-15T18:08:49.793Z,9.443868
2023-04-15T18:09:49.746Z,9.443892
2023-04-15T18:10:50.729Z,9.443909
2023-04-15T18:11:49.731Z,9.443848
2023-04-15T18:12:49.703Z,9.443884
2023-04-15T18:13:49.766Z,9.443851
2023-04-15T18:14:49.701Z,9.443836
2023-04-15T18:15:49.752Z,9.443821
2023-04-15T18:16:49.754Z,9.443735
2023-04-15T18:17:49.782Z,9.443726
2023-04-15T18:18:49.714Z,9.443719
2023-04-15T18:19:49.693Z,9.443834
2023-04-15T18:20:49.685Z,9.443697
2023-04-15T18:21:49.666Z,9.443700
2023-04-15T18:22:50.558Z,9.443748
2023-04-15T18:23:49.668Z,9.443722
2023-04-15T18:24:49.624Z,9.443749
2023-04-15T18:25:49.639Z,9.443726
2023-04-15T18:26:49.642Z,9.443728
2023-04-15T18:27:49.613Z,9.443685
2023-04-15T18:28:49.602Z,9.443714
2023-04-15T18:29:49.659Z,9.443745
2023-04-15T18:30:49.629Z,9.443745
2023-04-15T18:31:49.629Z,9.443737
2023-04-15T18:32:49.682Z,9.443761
2023-04-15T18:33:49.569Z,9.443789
2023-04-15T18:34:49.568Z,9.443756
2023-04-15T18:35:50.129Z,9.443700
2023-04-15T18:36:50.589Z,9.443719
2023-04-15T18:37:49.571Z,9.443717
2023-04-15T18:38:49.553Z,9.443715
2023-04-15T18:39:49.545Z,9.443747
2023-04-15T18:40:49.565Z,9.443744
2023-04-15T18:41:49.558Z,9.443701
2023-04-15T18:42:49.560Z,9.443687
2023-04-15T18:43:50.653Z,9.443623
2023-04-15T18:44:49.511Z,9.443649
2023-04-15T18:45:49.590Z,9.443608
2023-04-15T18:46:49.542Z,9.443695
2023-04-15T18:47:49.532Z,9.443728
2023-04-15T18:48:49.525Z,9.443742
2023-04-15T18:49:49.490Z,9.443709
2023-04-15T18:50:49.485Z,9.443755
2023-04-15T18:51:49.496Z,9.443786
2023-04-15T18:52:49.481Z,9.443785
2023-04-15T18:53:49.481Z,9.443765
2023-04-15T18:54:49.466Z,9.443711
2023-04-15T18:55:49.500Z,9.443739
2023-04-15T18:56:49.448Z,9.443785
2023-04-15T18:57:49.447Z,9.443772
2023-04-15T18:59:18.254Z,9.443706
2023-04-15T18:59:50.439Z,9.443716
2023-04-15T19:00:49.551Z,9.443715
2023-04-15T19:01:49.445Z,9.443730
2023-04-15T19:02:49.538Z,9.443668
2023-04-15T19:03:49.445Z,9.443667